KLSE/LSE METAR and TAF weather

Enter ICAO airport designator
Station Type Date Time Source
KLSE METAR 2020/07/06 00:53 UTC NOAA

KLSE 060053Z 25005KT 10SM SCT060 32/21 A2992 RMK AO2 SLP117 T03170206


Station Type Date Time Source
KLSE Decoded METAR 2020/07/06 00:53 UTC NOAA

LA CROSSE MUNICIPAL AIRPORT , WI, United States (KLSE) 43-53N 091-15W 200M
Jul 05, 2020 - 08:53 PM EDT / 2020.07.06 0053 UTC
Wind: from the WSW (250 degrees) at 6 MPH (5 KT):0
Visibility: 10 mile(s):0
Sky conditions: partly cloudy
Temperature: 89.1 F (31.7 C)
Dew Point: 69.1 F (20.6 C)
Relative Humidity: 51%
Pressure (altimeter): 29.92 in. Hg (1013 hPa)
ob: KLSE 060053Z 25005KT 10SM SCT060 32/21 A2992 RMK AO2 SLP117 T03170206
cycle: 1

Station Type Date Time Source
KLSE TAF 2020/07/05 18:30 UTC NOAA

TAF KLSE 051728Z 0518/0618 22005KT P6SM VCTS SCT050CB
FM060000 16003KT P6SM SCT150

Example: see airport list